Time;durP1;ratioP1;P1;durP2;ratioP2;P2;SDS_P1;SDS_P2;PMS_P1;PMS_P2;Temp;Humidity;BMP_temperature;BMP_pressure;BME280_temperature;BME280_humidity;BME280_pressure;Samples;Min_cycle;Max_cycle;Signal;HPM_P1;HPM_P2
2022/08/15 00:01:24;;;;;;;0.00;0.00;;;;;;;;;;4997424;28;20042;-84
2022/08/15 00:03:54;;;;;;;0.00;0.00;;;;;;;;;;4999088;28;20038;-85
2022/08/15 00:06:31;;;;;;;0.00;0.00;;;;;;;;;;4996205;28;20116;-84
2022/08/15 00:08:58;;;;;;;0.10;0.10;;;;;;;;;;5013206;28;20045;-84
2022/08/15 00:11:31;;;;;;;0.00;0.00;;;;;;;;;;4981016;28;20529;-85
2022/08/15 00:13:59;;;;;;;0.00;0.00;;;;;;;;;;4995527;28;20038;-84
2022/08/15 00:16:26;;;;;;;0.00;0.00;;;;;;;;;;4992453;28;20038;-85
2022/08/15 00:18:52;;;;;;;0.00;0.00;;;;;;;;;;4978791;28;20045;-85
2022/08/15 00:21:22;;;;;;;0.10;0.10;;;;;;;;;;5013043;28;20048;-85
2022/08/15 00:23:49;;;;;;;0.00;0.00;;;;;;;;;;4994020;28;20478;-84
2022/08/15 00:26:15;;;;;;;0.00;0.00;;;;;;;;;;5009505;28;20484;-83
2022/08/15 00:28:41;;;;;;;0.00;0.00;;;;;;;;;;4993694;28;20034;-83
2022/08/15 00:31:09;;;;;;;0.00;0.00;;;;;;;;;;5005002;28;20180;-85
2022/08/15 00:33:35;;;;;;;0.08;0.08;;;;;;;;;;4994026;28;20096;-85
2022/08/15 00:36:01;;;;;;;0.00;0.00;;;;;;;;;;5012345;28;20046;-85
2022/08/15 00:38:29;;;;;;;0.00;0.00;;;;;;;;;;4996754;28;20092;-83
2022/08/15 00:43:51;;;;;;;0.00;0.00;;;;;;;;;;5005447;28;20046;-84
2022/08/15 00:46:18;;;;;;;0.00;0.00;;;;;;;;;;4990051;28;20042;-84
2022/08/15 00:48:46;;;;;;;0.10;0.10;;;;;;;;;;4993776;28;20038;-84
2022/08/15 00:51:15;;;;;;;0.05;0.05;;;;;;;;;;4999279;28;20108;-85
2022/08/15 00:53:42;;;;;;;0.00;0.00;;;;;;;;;;4993100;28;20038;-85
2022/08/15 00:56:10;;;;;;;0.10;0.10;;;;;;;;;;4991861;28;20064;-85
2022/08/15 00:58:37;;;;;;;0.00;0.00;;;;;;;;;;4987885;28;20042;-85
2022/08/15 01:01:04;;;;;;;0.00;0.00;;;;;;;;;;4995778;28;20049;-85
2022/08/15 01:03:33;;;;;;;0.00;0.00;;;;;;;;;;4990446;28;20511;-84
2022/08/15 01:06:00;;;;;;;0.08;0.08;;;;;;;;;;4973764;28;20043;-85
2022/08/15 01:08:29;;;;;;;0.10;0.10;;;;;;;;;;5009704;28;20440;-84
2022/08/15 01:10:56;;;;;;;0.10;0.10;;;;;;;;;;4990710;28;20042;-84
2022/08/15 01:13:22;;;;;;;0.03;0.03;;;;;;;;;;4998691;28;20039;-85
2022/08/15 01:15:49;;;;;;;0.00;0.00;;;;;;;;;;4996486;28;20046;-85
2022/08/15 01:18:15;;;;;;;0.00;0.00;;;;;;;;;;4993712;28;20048;-84
2022/08/15 01:20:43;;;;;;;0.00;0.00;;;;;;;;;;4995699;28;20041;-83
2022/08/15 01:23:15;;;;;;;0.10;0.10;;;;;;;;;;4993421;28;20041;-85
2022/08/15 01:25:41;;;;;;;0.00;0.00;;;;;;;;;;5004326;28;20133;-84
2022/08/15 01:28:08;;;;;;;0.00;0.00;;;;;;;;;;4995855;28;20172;-84
2022/08/15 01:30:37;;;;;;;0.10;0.10;;;;;;;;;;4995804;28;20033;-84
2022/08/15 01:33:03;;;;;;;0.10;0.10;;;;;;;;;;4995898;28;20038;-84
2022/08/15 01:35:29;;;;;;;0.03;0.03;;;;;;;;;;4991471;28;20407;-87
2022/08/15 01:37:57;;;;;;;0.10;0.10;;;;;;;;;;4995712;28;20092;-83
2022/08/15 01:40:34;;;;;;;0.10;0.10;;;;;;;;;;5012247;28;20046;-84
2022/08/15 01:43:01;;;;;;;0.05;0.05;;;;;;;;;;4984879;28;20046;-84
2022/08/15 01:45:29;;;;;;;0.00;0.00;;;;;;;;;;5006679;28;20049;-85
2022/08/15 01:47:55;;;;;;;0.00;0.00;;;;;;;;;;4995957;28;20038;-85
2022/08/15 01:50:21;;;;;;;0.00;0.00;;;;;;;;;;4993963;28;20084;-85
2022/08/15 01:56:28;;;;;;;0.10;0.10;;;;;;;;;;5012802;28;20457;-83
2022/08/15 01:58:54;;;;;;;0.00;0.00;;;;;;;;;;4995831;28;20041;-83
2022/08/15 02:01:35;;;;;;;0.00;0.00;;;;;;;;;;5011997;28;20041;-84
2022/08/15 02:04:01;;;;;;;0.10;0.10;;;;;;;;;;4990685;28;20091;-84
2022/08/15 02:06:29;;;;;;;0.00;0.00;;;;;;;;;;4987171;28;20049;-84
2022/08/15 02:08:56;;;;;;;0.10;0.10;;;;;;;;;;5010667;28;20077;-83
2022/08/15 02:11:24;;;;;;;0.00;0.00;;;;;;;;;;4995471;28;20038;-85
2022/08/15 02:13:54;;;;;;;0.10;0.10;;;;;;;;;;4982962;28;20042;-85
2022/08/15 02:16:21;;;;;;;0.00;0.00;;;;;;;;;;5011471;28;20046;-84
2022/08/15 02:18:47;;;;;;;0.00;0.00;;;;;;;;;;4995625;28;20514;-85
2022/08/15 02:21:13;;;;;;;0.00;0.00;;;;;;;;;;4990474;28;20050;-85
2022/08/15 02:23:40;;;;;;;0.00;0.00;;;;;;;;;;4995241;28;20045;-84
2022/08/15 02:26:08;;;;;;;0.00;0.00;;;;;;;;;;4992996;28;20503;-84
2022/08/15 02:28:34;;;;;;;0.00;0.00;;;;;;;;;;5000153;28;20033;-84
2022/08/15 02:31:01;;;;;;;0.00;0.00;;;;;;;;;;4995359;28;20038;-84
2022/08/15 02:33:30;;;;;;;0.08;0.08;;;;;;;;;;4995871;28;20624;-84
2022/08/15 02:35:56;;;;;;;0.00;0.00;;;;;;;;;;4988638;28;20499;-84
2022/08/15 02:38:22;;;;;;;0.00;0.00;;;;;;;;;;5007189;28;20119;-84
2022/08/15 02:40:49;;;;;;;0.10;0.10;;;;;;;;;;5005000;28;20537;-84
2022/08/15 02:43:19;;;;;;;0.00;0.00;;;;;;;;;;4999357;28;20052;-84
2022/08/15 02:45:47;;;;;;;0.08;0.08;;;;;;;;;;4992297;28;20042;-84
2022/08/15 02:48:14;;;;;;;0.03;0.03;;;;;;;;;;4992033;28;20041;-84
2022/08/15 02:50:41;;;;;;;0.00;0.00;;;;;;;;;;4985110;28;20129;-84
2022/08/15 02:53:11;;;;;;;0.00;0.00;;;;;;;;;;5014941;28;20065;-85
2022/08/15 02:55:38;;;;;;;0.00;0.00;;;;;;;;;;5014517;28;20049;-84
2022/08/15 02:58:04;;;;;;;0.00;0.00;;;;;;;;;;4998330;28;20773;-84
2022/08/15 03:00:30;;;;;;;0.00;0.00;;;;;;;;;;4998469;28;20049;-84
2022/08/15 03:02:59;;;;;;;0.00;0.00;;;;;;;;;;5014874;28;20088;-84
2022/08/15 03:05:27;;;;;;;0.00;0.00;;;;;;;;;;4997906;28;20089;-82
2022/08/15 03:07:53;;;;;;;0.10;0.10;;;;;;;;;;4998319;28;20091;-84
2022/08/15 03:10:19;;;;;;;0.08;0.08;;;;;;;;;;4998295;28;20503;-84
2022/08/15 03:12:50;;;;;;;2.70;2.50;;;;;;;;;;4995737;28;20077;-84
2022/08/15 03:15:16;;;;;;;0.00;0.00;;;;;;;;;;5014806;28;20041;-84
2022/08/15 03:17:44;;;;;;;0.03;0.03;;;;;;;;;;5014137;28;20050;-83
2022/08/15 03:20:11;;;;;;;0.10;0.10;;;;;;;;;;4998087;28;20046;-84
2022/08/15 03:22:45;;;;;;;0.08;0.08;;;;;;;;;;5014744;28;20437;-86
2022/08/15 03:25:12;;;;;;;0.00;0.00;;;;;;;;;;5014407;28;20042;-84
2022/08/15 03:27:40;;;;;;;0.00;0.00;;;;;;;;;;4997653;28;20647;-85
2022/08/15 03:30:09;;;;;;;0.00;0.00;;;;;;;;;;4998096;28;20045;-84
2022/08/15 03:33:01;;;;;;;0.00;0.00;;;;;;;;;;4988849;28;20038;-84
2022/08/15 03:35:29;;;;;;;0.00;0.00;;;;;;;;;;4997443;28;20056;-83
2022/08/15 03:37:55;;;;;;;0.00;0.00;;;;;;;;;;4988824;28;20042;-84
2022/08/15 03:40:22;;;;;;;0.10;0.10;;;;;;;;;;4994480;28;20070;-85
2022/08/15 03:42:56;;;;;;;0.00;0.00;;;;;;;;;;4995602;28;20046;-83
2022/08/15 03:45:23;;;;;;;0.05;0.05;;;;;;;;;;4986887;28;20045;-84
2022/08/15 03:47:49;;;;;;;0.00;0.00;;;;;;;;;;4997203;28;20044;-83
2022/08/15 03:50:16;;;;;;;0.10;0.10;;;;;;;;;;4988172;28;20038;-83
2022/08/15 03:52:52;;;;;;;0.10;0.10;;;;;;;;;;4997572;28;20034;-86
2022/08/15 03:55:19;;;;;;;0.00;0.00;;;;;;;;;;4998031;28;20533;-85
2022/08/15 03:57:45;;;;;;;0.05;0.05;;;;;;;;;;4997170;28;20129;-86
2022/08/15 04:00:13;;;;;;;0.13;0.13;;;;;;;;;;4997273;28;20038;-85
2022/08/15 04:02:39;;;;;;;0.20;0.20;;;;;;;;;;4996270;28;20078;-84
2022/08/15 04:05:08;;;;;;;0.00;0.00;;;;;;;;;;5001710;28;20048;-85
2022/08/15 04:07:36;;;;;;;0.00;0.00;;;;;;;;;;4998743;28;20513;-84
2022/08/15 04:10:04;;;;;;;0.00;0.00;;;;;;;;;;5012818;28;20049;-84
2022/08/15 04:12:35;;;;;;;0.08;0.08;;;;;;;;;;4994682;28;20392;-84
2022/08/15 04:15:03;;;;;;;0.00;0.00;;;;;;;;;;5008740;28;20505;-83
2022/08/15 04:17:29;;;;;;;0.10;0.10;;;;;;;;;;5012599;28;20135;-85
2022/08/15 04:19:56;;;;;;;0.00;0.00;;;;;;;;;;4996810;28;20479;-84
2022/08/15 04:22:36;;;;;;;0.00;0.00;;;;;;;;;;4996467;28;20068;-85
2022/08/15 04:25:05;;;;;;;0.05;0.05;;;;;;;;;;4996476;28;20502;-86
2022/08/15 04:27:31;;;;;;;0.00;0.00;;;;;;;;;;4996026;28;20041;-83
2022/08/15 04:29:57;;;;;;;0.10;0.10;;;;;;;;;;4996356;28;20038;-85
2022/08/15 04:32:26;;;;;;;0.00;0.00;;;;;;;;;;4996311;28;20045;-85
2022/08/15 04:34:54;;;;;;;0.00;0.00;;;;;;;;;;5012709;28;20407;-84
2022/08/15 04:37:22;;;;;;;0.00;0.00;;;;;;;;;;4995561;28;20157;-84
2022/08/15 04:39:50;;;;;;;0.00;0.00;;;;;;;;;;5017136;28;20054;-86
2022/08/15 04:42:19;;;;;;;0.05;0.05;;;;;;;;;;5012468;28;20124;-85
2022/08/15 04:44:45;;;;;;;0.10;0.10;;;;;;;;;;4996044;28;20045;-85
2022/08/15 04:47:11;;;;;;;0.10;0.10;;;;;;;;;;4995248;28;20052;-84
2022/08/15 04:49:37;;;;;;;0.00;0.00;;;;;;;;;;5002810;28;20043;-85
2022/08/15 04:52:08;;;;;;;0.00;0.00;;;;;;;;;;5012197;28;20042;-84
2022/08/15 04:54:34;;;;;;;0.00;0.00;;;;;;;;;;4976206;28;20058;-85
2022/08/15 04:57:01;;;;;;;0.00;0.00;;;;;;;;;;4995492;28;20092;-84
2022/08/15 04:59:28;;;;;;;0.10;0.10;;;;;;;;;;4995771;28;20092;-86
2022/08/15 05:01:55;;;;;;;0.10;0.10;;;;;;;;;;4994067;28;20041;-86
2022/08/15 05:04:21;;;;;;;0.10;0.10;;;;;;;;;;4976803;28;20121;-86
2022/08/15 05:06:47;;;;;;;0.00;0.00;;;;;;;;;;4993038;28;20038;-86
2022/08/15 05:09:13;;;;;;;0.00;0.00;;;;;;;;;;4991479;28;20049;-85
2022/08/15 05:11:39;;;;;;;0.00;0.00;;;;;;;;;;4995667;28;20046;-86
2022/08/15 05:14:05;;;;;;;0.00;0.00;;;;;;;;;;5012244;28;20030;-85
2022/08/15 05:16:33;;;;;;;0.00;0.00;;;;;;;;;;5012197;28;20045;-86
2022/08/15 05:18:59;;;;;;;0.10;0.10;;;;;;;;;;4995628;28;20046;-85
2022/08/15 05:21:26;;;;;;;0.10;0.10;;;;;;;;;;4995618;28;20042;-85
2022/08/15 05:23:53;;;;;;;0.00;0.00;;;;;;;;;;4995602;28;20045;-86
2022/08/15 05:26:19;;;;;;;0.10;0.10;;;;;;;;;;4995538;28;20045;-87
2022/08/15 05:28:45;;;;;;;0.10;0.10;;;;;;;;;;4993812;28;20042;-88
2022/08/15 05:31:12;;;;;;;0.08;0.08;;;;;;;;;;4996577;28;20050;-88
2022/08/15 05:33:39;;;;;;;0.00;0.00;;;;;;;;;;4991160;28;20069;-89
2022/08/15 05:36:06;;;;;;;0.10;0.10;;;;;;;;;;4991164;28;20038;-88
2022/08/15 05:38:41;;;;;;;0.00;0.00;;;;;;;;;;4999922;28;20088;-88
2022/08/15 05:41:22;;;;;;;0.10;0.10;;;;;;;;;;5005032;28;20496;-88
2022/08/15 05:43:48;;;;;;;0.10;0.10;;;;;;;;;;4995967;28;20041;-87
2022/08/15 05:46:22;;;;;;;0.00;0.00;;;;;;;;;;4995575;28;20495;-89
2022/08/15 05:48:53;;;;;;;0.00;0.00;;;;;;;;;;4997241;28;20458;-89
2022/08/15 05:51:40;;;;;;;0.10;0.10;;;;;;;;;;4998959;28;20034;-89
2022/08/15 05:54:06;;;;;;;0.00;0.00;;;;;;;;;;5018349;28;20034;-89
2022/08/15 05:56:45;;;;;;;0.10;0.10;;;;;;;;;;4997714;28;20049;-89
2022/08/15 05:59:13;;;;;;;0.00;0.00;;;;;;;;;;5009704;28;20034;-89
2022/08/15 06:01:44;;;;;;;0.00;0.00;;;;;;;;;;4997866;28;20046;-89
2022/08/15 06:04:28;;;;;;;0.00;0.00;;;;;;;;;;5004836;28;20038;-89
2022/08/15 06:06:55;;;;;;;0.05;0.05;;;;;;;;;;5001299;28;20434;-89
2022/08/15 06:09:30;;;;;;;0.10;0.10;;;;;;;;;;4984582;28;20034;-89
2022/08/15 06:11:58;;;;;;;0.00;0.00;;;;;;;;;;4998888;28;20407;-86
2022/08/15 06:14:47;;;;;;;0.00;0.00;;;;;;;;;;4998680;28;20038;-87
2022/08/15 06:17:24;;;;;;;0.10;0.10;;;;;;;;;;5001020;28;20557;-87
2022/08/15 06:19:51;;;;;;;0.00;0.00;;;;;;;;;;4997389;28;20049;-87
2022/08/15 06:22:42;;;;;;;0.00;0.00;;;;;;;;;;4998971;28;20045;-87
2022/08/15 06:25:27;;;;;;;0.00;0.00;;;;;;;;;;4999111;28;20054;-89
2022/08/15 06:28:06;;;;;;;0.00;0.00;;;;;;;;;;4999431;28;21443;-85
2022/08/15 06:30:51;;;;;;;0.10;0.10;;;;;;;;;;4998146;28;20121;-85
2022/08/15 06:33:20;;;;;;;0.10;0.10;;;;;;;;;;4998132;28;20411;-84
2022/08/15 06:35:55;;;;;;;0.10;0.10;;;;;;;;;;4998003;28;20510;-85
2022/08/15 06:38:40;;;;;;;0.03;0.03;;;;;;;;;;4998824;28;20457;-84
2022/08/15 06:41:07;;;;;;;;;;;;;;;;;;5007093;28;20037;-84
2022/08/15 06:43:34;;;;;;;0.10;0.10;;;;;;;;;;4997466;28;19967;-84
2022/08/15 06:46:04;;;;;;;0.00;0.00;;;;;;;;;;5001288;28;20046;-84
2022/08/15 06:48:33;;;;;;;0.10;0.10;;;;;;;;;;4985758;28;20096;-86
2022/08/15 06:51:01;;;;;;;0.20;0.20;;;;;;;;;;5014808;28;20132;-84
2022/08/15 06:53:37;;;;;;;0.05;0.05;;;;;;;;;;4981896;28;20042;-87
2022/08/15 06:56:09;;;;;;;0.10;0.10;;;;;;;;;;4997368;28;20450;-84
2022/08/15 06:58:43;;;;;;;0.00;0.00;;;;;;;;;;4997571;28;20096;-84
2022/08/15 07:01:19;;;;;;;0.10;0.10;;;;;;;;;;4998169;28;20145;-86
2022/08/15 07:03:57;;;;;;;0.00;0.00;;;;;;;;;;5026047;28;20041;-84
2022/08/15 07:06:30;;;;;;;0.10;0.10;;;;;;;;;;5010594;28;20124;-85
2022/08/15 07:09:00;;;;;;;0.00;0.00;;;;;;;;;;5018418;28;20060;-84
2022/08/15 07:11:26;;;;;;;0.00;0.00;;;;;;;;;;4995419;28;20425;-86
2022/08/15 07:14:07;;;;;;;0.20;0.20;;;;;;;;;;4997668;28;20037;-85
2022/08/15 07:16:52;;;;;;;0.00;0.00;;;;;;;;;;4983807;28;20423;-86
2022/08/15 07:19:18;;;;;;;;;;;;;;;;;;5004481;28;20396;-86
2022/08/15 07:21:44;;;;;;;0.00;0.00;;;;;;;;;;4996550;28;19964;-86
2022/08/15 07:24:24;;;;;;;0.08;0.08;;;;;;;;;;5014130;28;20064;-87
2022/08/15 07:26:54;;;;;;;0.00;0.00;;;;;;;;;;5001163;28;20198;-85
2022/08/15 07:29:27;;;;;;;0.05;0.05;;;;;;;;;;5004968;28;20041;-83
2022/08/15 07:32:00;;;;;;;0.00;0.00;;;;;;;;;;4997324;28;20038;-83
2022/08/15 07:34:26;;;;;;;0.08;0.08;;;;;;;;;;4996667;28;20034;-82
2022/08/15 07:36:56;;;;;;;0.00;0.00;;;;;;;;;;5013017;28;20084;-83
2022/08/15 07:39:25;;;;;;;0.00;0.00;;;;;;;;;;4999430;28;20030;-83
2022/08/15 07:41:51;;;;;;;0.10;0.10;;;;;;;;;;5004532;28;20033;-83
2022/08/15 07:44:19;;;;;;;0.10;0.10;;;;;;;;;;4997003;28;20073;-83
2022/08/15 07:46:55;;;;;;;0.00;0.00;;;;;;;;;;4996181;28;20064;-83
2022/08/15 07:49:26;;;;;;;0.00;0.00;;;;;;;;;;5013025;28;20081;-83
2022/08/15 07:52:06;;;;;;;0.00;0.00;;;;;;;;;;4998120;28;20044;-83
2022/08/15 07:54:43;;;;;;;0.00;0.00;;;;;;;;;;4996731;28;20124;-83
2022/08/15 07:57:20;;;;;;;0.00;0.00;;;;;;;;;;4988962;28;20466;-83
2022/08/15 08:00:02;;;;;;;0.00;0.00;;;;;;;;;;4996671;28;20049;-83
2022/08/15 08:02:30;;;;;;;0.00;0.00;;;;;;;;;;4996612;28;20103;-83
2022/08/15 08:05:00;;;;;;;0.05;0.05;;;;;;;;;;4996687;28;20446;-81
2022/08/15 08:07:31;;;;;;;0.00;0.00;;;;;;;;;;4986849;28;20045;-83
2022/08/15 08:10:01;;;;;;;0.00;0.00;;;;;;;;;;4993244;28;20096;-84
2022/08/15 08:12:45;;;;;;;0.00;0.00;;;;;;;;;;5007274;28;20034;-82
2022/08/15 08:15:19;;;;;;;0.00;0.00;;;;;;;;;;4986388;28;20053;-86
2022/08/15 08:18:14;;;;;;;0.00;0.00;;;;;;;;;;5003723;28;20069;-83
2022/08/15 08:20:46;;;;;;;0.00;0.00;;;;;;;;;;4985499;28;20069;-83
2022/08/15 08:23:33;;;;;;;0.10;0.10;;;;;;;;;;4976718;28;20117;-83
2022/08/15 08:26:17;;;;;;;0.00;0.00;;;;;;;;;;5010536;28;20038;-84
2022/08/15 08:28:53;;;;;;;0.10;0.10;;;;;;;;;;4996225;28;20041;-81
2022/08/15 08:31:31;;;;;;;0.00;0.00;;;;;;;;;;4993608;28;20472;-82
2022/08/15 08:34:32;;;;;;;0.00;0.00;;;;;;;;;;5011842;28;20050;-82
2022/08/15 08:37:02;;;;;;;0.00;0.00;;;;;;;;;;4955938;28;20045;-82
2022/08/15 08:39:48;;;;;;;0.00;0.00;;;;;;;;;;5003906;28;20093;-82
2022/08/15 08:42:18;;;;;;;0.00;0.00;;;;;;;;;;4996894;28;20048;-83
2022/08/15 08:44:44;;;;;;;0.00;0.00;;;;;;;;;;4995893;28;20038;-83
2022/08/15 08:47:16;;;;;;;0.00;0.00;;;;;;;;;;4994193;28;20398;-83
2022/08/15 08:50:01;;;;;;;0.00;0.00;;;;;;;;;;4996227;28;20048;-83
2022/08/15 08:52:34;;;;;;;0.00;0.00;;;;;;;;;;4997550;28;20044;-87
2022/08/15 08:55:06;;;;;;;0.00;0.00;;;;;;;;;;5015981;28;20102;-89
2022/08/15 08:57:38;;;;;;;0.00;0.00;;;;;;;;;;4998599;28;20114;-88
2022/08/15 09:00:07;;;;;;;0.10;0.10;;;;;;;;;;4979808;28;20069;-89
2022/08/15 09:02:39;;;;;;;0.00;0.00;;;;;;;;;;5000073;28;20037;-89
2022/08/15 09:05:12;;;;;;;0.00;0.00;;;;;;;;;;5001142;28;20058;-89
2022/08/15 09:07:41;;;;;;;0.05;0.05;;;;;;;;;;5014381;28;20136;-90
2022/08/15 09:10:08;;;;;;;0.10;0.10;;;;;;;;;;4991816;28;20038;-89
2022/08/15 09:15:31;;;;;;;0.05;0.05;;;;;;;;;;5009497;28;20487;-89
2022/08/15 09:18:05;;;;;;;0.05;0.05;;;;;;;;;;4998261;28;20042;-89
2022/08/15 09:20:33;;;;;;;0.10;0.10;;;;;;;;;;4998144;28;20501;-90
2022/08/15 09:23:00;;;;;;;0.00;0.00;;;;;;;;;;4998340;28;20057;-89
2022/08/15 09:25:27;;;;;;;0.00;0.00;;;;;;;;;;5001863;28;20409;-90
2022/08/15 09:27:53;;;;;;;0.60;0.30;;;;;;;;;;5003247;28;20042;-89
2022/08/15 09:30:20;;;;;;;0.00;0.00;;;;;;;;;;5007577;28;20041;-90
2022/08/15 09:32:49;;;;;;;0.10;0.10;;;;;;;;;;5000594;28;20037;-90
2022/08/15 09:35:34;;;;;;;0.10;0.10;;;;;;;;;;4996220;28;20046;-89
2022/08/15 09:38:00;;;;;;;;;;;;;;;;;;5000309;28;20135;-90
2022/08/15 09:40:44;;;;;;;0.03;0.03;;;;;;;;;;4999298;28;19925;-90
2022/08/15 09:43:32;;;;;;;0.00;0.00;;;;;;;;;;4993533;28;20068;-90
2022/08/15 09:46:16;;;;;;;0.00;0.00;;;;;;;;;;4998386;28;20052;-90
2022/08/15 09:48:51;;;;;;;0.10;0.10;;;;;;;;;;5000468;28;20048;-90
2022/08/15 09:51:25;;;;;;;0.00;0.00;;;;;;;;;;4997435;28;20316;-89
2022/08/15 09:54:13;;;;;;;0.00;0.00;;;;;;;;;;4995660;28;20058;-89
2022/08/15 09:56:40;;;;;;;0.00;0.00;;;;;;;;;;4999730;28;20057;-92
2022/08/15 09:59:14;;;;;;;0.00;0.00;;;;;;;;;;4998076;28;20041;-89
2022/08/15 10:01:46;;;;;;;0.10;0.10;;;;;;;;;;4998098;28;20042;-92
2022/08/15 10:04:13;;;;;;;0.03;0.03;;;;;;;;;;5003536;28;20042;-93
2022/08/15 10:07:01;;;;;;;0.10;0.10;;;;;;;;;;5008992;28;20097;-94
2022/08/15 10:09:33;;;;;;;0.00;0.00;;;;;;;;;;4995685;28;20038;-92
2022/08/15 10:12:09;;;;;;;0.00;0.00;;;;;;;;;;5006077;28;20074;-93
2022/08/15 10:15:06;;;;;;;0.00;0.00;;;;;;;;;;4992282;28;20395;-92
2022/08/15 10:17:35;;;;;;;0.08;0.08;;;;;;;;;;4995379;28;20129;-91
2022/08/15 10:20:24;;;;;;;0.10;0.10;;;;;;;;;;4998302;28;20383;-91
2022/08/15 10:22:52;;;;;;;0.10;0.10;;;;;;;;;;4992932;28;20468;-94
2022/08/15 10:25:28;;;;;;;0.00;0.00;;;;;;;;;;4998400;28;20241;-94
2022/08/15 10:28:14;;;;;;;0.00;0.00;;;;;;;;;;4992875;28;20043;-94
2022/08/15 10:30:44;;;;;;;0.00;0.00;;;;;;;;;;4986422;28;20038;-94
2022/08/15 10:33:34;;;;;;;0.03;0.03;;;;;;;;;;4985617;28;20076;-89
2022/08/15 10:36:27;;;;;;;0.00;0.00;;;;;;;;;;5002043;28;20046;-90
2022/08/15 10:39:02;;;;;;;0.00;0.00;;;;;;;;;;4995745;28;20419;-88
2022/08/15 10:41:51;;;;;;;0.00;0.00;;;;;;;;;;4996113;28;20076;-90
2022/08/15 10:44:42;;;;;;;0.00;0.00;;;;;;;;;;5005561;28;20038;-90
2022/08/15 10:47:26;;;;;;;0.10;0.10;;;;;;;;;;4992798;28;21435;-89
2022/08/15 10:49:52;;;;;;;0.00;0.00;;;;;;;;;;4989554;28;20034;-89
2022/08/15 10:52:33;;;;;;;0.10;0.10;;;;;;;;;;4990080;28;20037;-88
2022/08/15 10:55:17;;;;;;;0.03;0.03;;;;;;;;;;5003758;28;20034;-88
2022/08/15 10:57:48;;;;;;;;;;;;;;;;;;4997689;28;20042;-89
2022/08/15 11:00:17;;;;;;;0.00;0.00;;;;;;;;;;4995088;28;19925;-89
2022/08/15 11:02:43;;;;;;;0.00;0.00;;;;;;;;;;4992286;28;20065;-88
2022/08/15 11:05:10;;;;;;;0.00;0.00;;;;;;;;;;5016263;28;20042;-88
2022/08/15 11:07:56;;;;;;;0.00;0.00;;;;;;;;;;5006619;28;20137;-88
2022/08/15 11:10:25;;;;;;;0.00;0.00;;;;;;;;;;4990395;28;20072;-88
2022/08/15 11:12:57;;;;;;;0.10;0.10;;;;;;;;;;4992763;28;20503;-89
2022/08/15 11:15:42;;;;;;;0.00;0.00;;;;;;;;;;5002121;28;20496;-88
2022/08/15 11:18:09;;;;;;;0.00;0.00;;;;;;;;;;4993019;28;20034;-88
2022/08/15 11:20:37;;;;;;;0.32;0.32;;;;;;;;;;4993728;28;20104;-87
2022/08/15 11:23:04;;;;;;;0.10;0.10;;;;;;;;;;4994255;28;20129;-87
2022/08/15 11:25:31;;;;;;;0.57;0.57;;;;;;;;;;4992048;28;20479;-86
2022/08/15 11:27:58;;;;;;;0.10;0.10;;;;;;;;;;4997206;28;20035;-85
2022/08/15 11:30:25;;;;;;;0.00;0.00;;;;;;;;;;4999228;28;20029;-85
2022/08/15 11:32:52;;;;;;;0.10;0.10;;;;;;;;;;5013070;28;20045;-86
2022/08/15 11:35:25;;;;;;;0.03;0.03;;;;;;;;;;4994102;28;20038;-87
2022/08/15 11:37:53;;;;;;;0.00;0.00;;;;;;;;;;5002576;28;20038;-87
2022/08/15 11:40:49;;;;;;;0.00;0.00;;;;;;;;;;4996198;28;20042;-86
2022/08/15 11:43:16;;;;;;;0.10;0.10;;;;;;;;;;4973502;28;20458;-88
2022/08/15 11:45:45;;;;;;;0.00;0.00;;;;;;;;;;5007409;28;20069;-87
2022/08/15 11:48:13;;;;;;;0.00;0.00;;;;;;;;;;4998734;28;20069;-86
2022/08/15 11:50:40;;;;;;;0.00;0.00;;;;;;;;;;4989358;28;20242;-87
2022/08/15 11:53:08;;;;;;;0.10;0.10;;;;;;;;;;5017207;28;20033;-85
2022/08/15 11:55:34;;;;;;;0.00;0.00;;;;;;;;;;4993974;28;20411;-85
2022/08/15 11:58:01;;;;;;;0.10;0.10;;;;;;;;;;5006863;28;20034;-86
2022/08/15 12:00:42;;;;;;;0.00;0.00;;;;;;;;;;5004419;28;20040;-85
2022/08/15 12:03:20;;;;;;;0.00;0.00;;;;;;;;;;4994705;28;20042;-85
2022/08/15 12:05:47;;;;;;;0.00;0.00;;;;;;;;;;4995796;28;20061;-85
2022/08/15 12:08:13;;;;;;;0.10;0.10;;;;;;;;;;4997102;28;20034;-86
2022/08/15 12:10:41;;;;;;;0.08;0.08;;;;;;;;;;4996557;28;20666;-87
2022/08/15 12:13:07;;;;;;;0.10;0.10;;;;;;;;;;5025540;28;20434;-85
2022/08/15 12:15:33;;;;;;;0.10;0.10;;;;;;;;;;5007743;28;20128;-85
2022/08/15 12:18:02;;;;;;;0.10;0.10;;;;;;;;;;5013800;28;20049;-86
2022/08/15 12:20:35;;;;;;;0.00;0.00;;;;;;;;;;5020743;28;20071;-86
2022/08/15 12:23:22;;;;;;;0.10;0.10;;;;;;;;;;5010174;28;20045;-86
2022/08/15 12:26:07;;;;;;;0.00;0.00;;;;;;;;;;5003520;28;20058;-84
2022/08/15 12:28:34;;;;;;;0.00;0.00;;;;;;;;;;5010576;28;20091;-83
2022/08/15 12:31:10;;;;;;;0.00;0.00;;;;;;;;;;5004813;28;20050;-86
2022/08/15 12:33:36;;;;;;;0.00;0.00;;;;;;;;;;4985759;28;20112;-84
2022/08/15 12:36:02;;;;;;;0.00;0.00;;;;;;;;;;4988846;28;20037;-83
2022/08/15 12:38:29;;;;;;;0.00;0.00;;;;;;;;;;5004237;28;20129;-84
2022/08/15 12:41:11;;;;;;;0.10;0.10;;;;;;;;;;5009552;28;20508;-84
2022/08/15 12:43:38;;;;;;;0.08;0.08;;;;;;;;;;5008759;28;20419;-83
2022/08/15 12:46:04;;;;;;;0.00;0.00;;;;;;;;;;5004320;28;20088;-84
2022/08/15 12:48:33;;;;;;;0.10;0.10;;;;;;;;;;5000507;28;20046;-85
2022/08/15 12:51:01;;;;;;;0.00;0.00;;;;;;;;;;5013179;28;20038;-86
2022/08/15 12:53:27;;;;;;;0.00;0.00;;;;;;;;;;5011349;28;20033;-83
2022/08/15 12:55:53;;;;;;;0.00;0.00;;;;;;;;;;5001730;28;20045;-85
2022/08/15 12:58:19;;;;;;;0.00;0.00;;;;;;;;;;5010473;28;20116;-84
2022/08/15 13:00:47;;;;;;;0.00;0.00;;;;;;;;;;5011479;28;20049;-83
2022/08/15 13:03:27;;;;;;;0.00;0.00;;;;;;;;;;4997799;28;20168;-86
2022/08/15 13:06:03;;;;;;;0.10;0.10;;;;;;;;;;5013500;28;20050;-86
2022/08/15 13:08:29;;;;;;;0.00;0.00;;;;;;;;;;4998011;28;20116;-87
2022/08/15 13:10:55;;;;;;;0.00;0.00;;;;;;;;;;5001652;28;20045;-85
2022/08/15 13:13:21;;;;;;;0.00;0.00;;;;;;;;;;4996866;28;20037;-84
2022/08/15 13:15:49;;;;;;;0.00;0.00;;;;;;;;;;5008197;28;20038;-86
2022/08/15 13:18:17;;;;;;;0.00;0.00;;;;;;;;;;4997626;28;20046;-85
2022/08/15 13:23:40;;;;;;;;;;;;;;;;;;5007563;28;20160;-87
2022/08/15 13:26:14;;;;;;;0.10;0.10;;;;;;;;;;4989304;28;20012;-87
2022/08/15 13:28:42;;;;;;;0.08;0.08;;;;;;;;;;4997531;28;20123;-86
2022/08/15 13:31:09;;;;;;;0.00;0.00;;;;;;;;;;4991440;28;20035;-86
2022/08/15 13:33:35;;;;;;;0.00;0.00;;;;;;;;;;5010140;28;20068;-86
2022/08/15 13:36:02;;;;;;;0.08;0.08;;;;;;;;;;4987793;28;20052;-85
2022/08/15 13:38:29;;;;;;;0.10;0.10;;;;;;;;;;4983456;28;20096;-86
2022/08/15 13:40:55;;;;;;;0.05;0.05;;;;;;;;;;4993506;28;20088;-84
2022/08/15 13:43:21;;;;;;;0.00;0.00;;;;;;;;;;5006010;28;20060;-83
2022/08/15 13:46:04;;;;;;;0.10;0.10;;;;;;;;;;4990744;28;20468;-84
2022/08/15 13:48:35;;;;;;;0.10;0.10;;;;;;;;;;4992091;28;20128;-84
2022/08/15 13:51:01;;;;;;;0.17;0.17;;;;;;;;;;5000924;28;20487;-84
2022/08/15 13:53:28;;;;;;;0.10;0.10;;;;;;;;;;4993245;28;20041;-84
2022/08/15 13:55:54;;;;;;;0.00;0.00;;;;;;;;;;4994962;28;20047;-87
2022/08/15 13:58:20;;;;;;;0.10;0.10;;;;;;;;;;4985323;28;20034;-83
2022/08/15 14:00:47;;;;;;;0.10;0.10;;;;;;;;;;4997390;28;20041;-84
2022/08/15 14:03:19;;;;;;;0.00;0.00;;;;;;;;;;4994460;28;20042;-85
2022/08/15 14:05:45;;;;;;;0.00;0.00;;;;;;;;;;4993333;28;20045;-83
2022/08/15 14:08:11;;;;;;;0.10;0.10;;;;;;;;;;4997161;28;20061;-84
2022/08/15 14:10:38;;;;;;;0.00;0.00;;;;;;;;;;4997076;28;20026;-87
2022/08/15 14:13:04;;;;;;;0.10;0.10;;;;;;;;;;4984764;28;20111;-84
2022/08/15 14:15:30;;;;;;;0.00;0.00;;;;;;;;;;4987130;28;20487;-85
2022/08/15 14:17:58;;;;;;;0.00;0.00;;;;;;;;;;5000391;28;20046;-84
2022/08/15 14:20:25;;;;;;;0.03;0.03;;;;;;;;;;5009038;28;20038;-83
2022/08/15 14:22:51;;;;;;;0.00;0.00;;;;;;;;;;4994062;28;20045;-83
2022/08/15 14:25:19;;;;;;;0.00;0.00;;;;;;;;;;5002635;28;20061;-84
2022/08/15 14:27:45;;;;;;;0.00;0.00;;;;;;;;;;4995188;28;20038;-84
2022/08/15 14:30:12;;;;;;;0.10;0.10;;;;;;;;;;5011626;28;20026;-84
2022/08/15 14:32:39;;;;;;;0.08;0.08;;;;;;;;;;5007355;28;20038;-84
2022/08/15 14:35:06;;;;;;;0.00;0.00;;;;;;;;;;4996803;28;20441;-84
2022/08/15 14:37:32;;;;;;;0.05;0.05;;;;;;;;;;5000088;28;20451;-81
2022/08/15 14:40:00;;;;;;;0.08;0.08;;;;;;;;;;5012005;28;20042;-81
2022/08/15 14:42:27;;;;;;;0.10;0.10;;;;;;;;;;5000060;28;20038;-81
2022/08/15 14:44:54;;;;;;;0.00;0.00;;;;;;;;;;5000524;28;20407;-80
2022/08/15 14:47:20;;;;;;;0.10;0.10;;;;;;;;;;5024525;28;20095;-79
2022/08/15 14:49:50;;;;;;;0.10;0.10;;;;;;;;;;4996227;28;20048;-80
2022/08/15 14:52:16;;;;;;;0.00;0.00;;;;;;;;;;5012599;28;20116;-81
2022/08/15 14:54:46;;;;;;;0.00;0.00;;;;;;;;;;5008290;28;20038;-80
2022/08/15 14:57:19;;;;;;;0.00;0.00;;;;;;;;;;5000739;28;20094;-80
2022/08/15 14:59:45;;;;;;;0.00;0.00;;;;;;;;;;4995809;28;20046;-81
2022/08/15 15:02:13;;;;;;;0.05;0.05;;;;;;;;;;4990523;28;20042;-80
2022/08/15 15:04:44;;;;;;;0.00;0.00;;;;;;;;;;4997549;28;20088;-81
2022/08/15 15:07:10;;;;;;;0.03;0.03;;;;;;;;;;5008832;28;20038;-81
2022/08/15 15:09:36;;;;;;;0.10;0.10;;;;;;;;;;4994368;28;20034;-82
2022/08/15 15:12:02;;;;;;;0.00;0.00;;;;;;;;;;5009360;28;20065;-81
2022/08/15 15:14:29;;;;;;;0.10;0.10;;;;;;;;;;5000580;28;20057;-83
2022/08/15 15:16:57;;;;;;;0.10;0.10;;;;;;;;;;5017130;28;20038;-82
2022/08/15 15:19:25;;;;;;;0.00;0.00;;;;;;;;;;4995521;28;20042;-82